Time;durP1;ratioP1;P1;durP2;ratioP2;P2;SDS_P1;SDS_P2;PMS_P1;PMS_P2;Temp;Humidity;BMP_temperature;BMP_pressure;BME280_temperature;BME280_humidity;BME280_pressure;Samples;Min_cycle;Max_cycle;Signal;HPM_P1;HPM_P2
2024/01/24 00:01:13;;;;;;;7.10;2.22;;;13.40;99.90;;;;;;5064833;28;20032;-72
2024/01/24 00:03:39;;;;;;;4.97;1.92;;;13.40;99.90;;;;;;5065355;28;20025;-71
2024/01/24 00:06:05;;;;;;;6.68;2.03;;;13.40;99.90;;;;;;5064612;28;20087;-72
2024/01/24 00:08:31;;;;;;;5.63;1.83;;;13.50;99.90;;;;;;5064920;28;20031;-71
2024/01/24 00:10:56;;;;;;;7.35;1.92;;;13.50;99.90;;;;;;5065064;28;20362;-71
2024/01/24 00:13:22;;;;;;;5.40;1.67;;;13.50;99.90;;;;;;5065056;28;20052;-71
2024/01/24 00:15:48;;;;;;;6.25;1.70;;;13.50;99.90;;;;;;5064127;28;20028;-74
2024/01/24 00:18:13;;;;;;;5.28;2.03;;;13.50;99.90;;;;;;5065131;28;20112;-73
2024/01/24 00:20:39;;;;;;;4.50;1.77;;;13.60;99.90;;;;;;5064591;28;20111;-71
2024/01/24 00:23:04;;;;;;;4.93;2.10;;;13.60;99.90;;;;;;5064712;28;20393;-71
2024/01/24 00:25:30;;;;;;;5.28;1.70;;;13.60;99.90;;;;;;5064282;28;20028;-71
2024/01/24 00:27:56;;;;;;;5.55;1.50;;;13.60;99.90;;;;;;5064820;28;20417;-71
2024/01/24 00:30:22;;;;;;;7.20;1.70;;;13.60;99.90;;;;;;5064531;28;20025;-71
2024/01/24 00:32:48;;;;;;;3.40;1.27;;;13.70;99.90;;;;;;5064730;28;20027;-71
2024/01/24 00:35:13;;;;;;;3.80;1.60;;;13.70;99.90;;;;;;5064973;28;20025;-71
2024/01/24 00:37:39;;;;;;;4.53;1.20;;;13.70;99.90;;;;;;5068504;28;20054;-71
2024/01/24 00:40:06;;;;;;;5.15;1.27;;;13.70;99.90;;;;;;5067898;28;20037;-71
2024/01/24 00:42:32;;;;;;;2.80;1.02;;;13.80;99.90;;;;;;5068051;28;20024;-71
2024/01/24 00:44:57;;;;;;;3.47;1.27;;;13.80;99.90;;;;;;5067974;28;20032;-71
2024/01/24 00:47:23;;;;;;;3.85;1.10;;;13.80;99.90;;;;;;5068468;28;20112;-73
2024/01/24 00:49:49;;;;;;;2.53;0.80;;;13.90;99.90;;;;;;5068172;28;20015;-71
2024/01/24 00:52:14;;;;;;;3.22;1.17;;;13.90;99.90;;;;;;5068319;28;20032;-72
2024/01/24 00:54:40;;;;;;;4.05;1.23;;;13.90;99.90;;;;;;5067852;28;20012;-71
2024/01/24 00:57:06;;;;;;;3.00;0.90;;;13.90;99.90;;;;;;5050311;28;20032;-72
2024/01/24 00:59:31;;;;;;;2.47;0.90;;;13.80;99.90;;;;;;5067482;28;20452;-71
2024/01/24 01:01:57;;;;;;;2.58;0.95;;;13.80;99.90;;;;;;5068287;28;20044;-71
2024/01/24 01:04:23;;;;;;;2.58;1.05;;;13.80;99.90;;;;;;5067661;28;20489;-71
2024/01/24 01:06:48;;;;;;;1.52;0.70;;;13.80;99.90;;;;;;5067571;28;20029;-71
2024/01/24 01:09:14;;;;;;;2.55;1.00;;;13.80;99.90;;;;;;5067513;28;20089;-72
2024/01/24 01:11:40;;;;;;;2.95;1.05;;;13.80;99.90;;;;;;5067161;28;20310;-71
2024/01/24 01:14:05;;;;;;;3.00;0.70;;;13.80;99.90;;;;;;5067882;28;20541;-71
2024/01/24 01:16:31;;;;;;;4.13;1.15;;;13.70;99.90;;;;;;5067315;28;20016;-71
2024/01/24 01:18:57;;;;;;;1.95;0.90;;;13.80;99.90;;;;;;5068103;28;20024;-72
2024/01/24 01:21:22;;;;;;;2.08;0.77;;;13.70;99.90;;;;;;5067151;28;20035;-72
2024/01/24 01:23:48;;;;;;;3.50;1.30;;;13.60;99.90;;;;;;5067408;28;20081;-70
2024/01/24 01:26:13;;;;;;;1.75;0.77;;;13.60;99.90;;;;;;5067022;28;20078;-71
2024/01/24 01:28:39;;;;;;;1.92;0.82;;;13.50;99.90;;;;;;5067295;28;20112;-72
2024/01/24 01:31:05;;;;;;;2.25;0.70;;;13.40;99.90;;;;;;5067339;28;20025;-71
2024/01/24 01:33:31;;;;;;;2.78;1.10;;;13.40;99.90;;;;;;5067530;28;20081;-72
2024/01/24 01:35:56;;;;;;;1.38;0.90;;;13.30;99.90;;;;;;5067342;28;20432;-72
2024/01/24 01:38:22;;;;;;;2.70;1.20;;;13.20;99.90;;;;;;5066855;28;20386;-71
2024/01/24 01:40:48;;;;;;;1.27;0.80;;;13.20;99.90;;;;;;5066888;28;20060;-71
2024/01/24 01:43:15;;;;;;;2.72;0.80;;;13.10;99.90;;;;;;5066940;28;20025;-72
2024/01/24 01:45:43;;;;;;;2.25;1.00;;;13.10;99.90;;;;;;5064782;28;20025;-71
2024/01/24 01:48:10;;;;;;;2.10;1.10;;;13.10;99.90;;;;;;5065648;28;20025;-71
2024/01/24 01:50:37;;;;;;;3.30;1.40;;;13.00;99.90;;;;;;5064683;28;20072;-72
2024/01/24 01:53:04;;;;;;;3.97;1.77;;;13.00;99.90;;;;;;5065508;28;20111;-71
2024/01/24 01:55:32;;;;;;;5.15;1.33;;;12.90;99.90;;;;;;5064274;28;20748;-72
2024/01/24 01:57:59;;;;;;;2.35;1.30;;;12.90;99.90;;;;;;5065176;28;20151;-71
2024/01/24 02:00:28;;;;;;;3.10;1.65;;;12.90;99.90;;;;;;5066493;28;20456;-72
2024/01/24 02:02:54;;;;;;;2.13;1.75;;;12.90;99.90;;;;;;5067041;28;20017;-71
2024/01/24 02:05:19;;;;;;;2.78;1.63;;;12.80;99.90;;;;;;5066431;28;20031;-71
2024/01/24 02:07:45;;;;;;;2.75;1.85;;;12.80;99.90;;;;;;5066938;28;20150;-72
2024/01/24 02:10:14;;;;;;;1.60;1.50;;;12.80;99.90;;;;;;5066663;28;20046;-71
2024/01/24 02:12:41;;;;;;;3.58;1.80;;;12.80;99.90;;;;;;5048977;28;20104;-71
2024/01/24 02:15:09;;;;;;;3.28;1.52;;;12.80;99.90;;;;;;5052450;28;20012;-72
2024/01/24 02:17:35;;;;;;;3.33;1.77;;;12.80;99.90;;;;;;5066628;28;20036;-71
2024/01/24 02:20:02;;;;;;;3.63;1.88;;;12.70;99.90;;;;;;5065884;28;20032;-71
2024/01/24 02:22:27;;;;;;;3.08;1.80;;;12.70;99.90;;;;;;5066631;28;20029;-71
2024/01/24 02:24:53;;;;;;;4.10;1.63;;;12.70;99.90;;;;;;5066055;28;20458;-71
2024/01/24 02:27:18;;;;;;;2.88;1.80;;;12.70;99.90;;;;;;5066554;28;20362;-71
2024/01/24 02:29:44;;;;;;;2.50;1.70;;;12.70;99.90;;;;;;5065998;28;20040;-71
2024/01/24 02:32:10;;;;;;;2.15;1.60;;;12.70;99.90;;;;;;5066430;28;20020;-71
2024/01/24 02:34:35;;;;;;;1.95;1.63;;;12.70;99.90;;;;;;5066098;28;20361;-71
2024/01/24 02:37:01;;;;;;;2.40;1.60;;;12.70;99.90;;;;;;5066359;28;20047;-72
2024/01/24 02:39:27;;;;;;;2.95;1.60;;;12.70;99.90;;;;;;5065894;28;20035;-71
2024/01/24 02:41:53;;;;;;;1.42;1.33;;;12.70;99.90;;;;;;5066075;28;20024;-72
2024/01/24 02:44:18;;;;;;;3.08;1.42;;;12.70;99.90;;;;;;5066379;28;20111;-71
2024/01/24 02:46:44;;;;;;;1.85;1.45;;;12.70;99.90;;;;;;5065111;28;20123;-71
2024/01/24 02:49:10;;;;;;;1.50;1.40;;;12.70;99.90;;;;;;5065947;28;20024;-71
2024/01/24 02:51:36;;;;;;;2.13;1.60;;;12.70;99.90;;;;;;5065631;28;20020;-73
2024/01/24 02:54:02;;;;;;;1.27;1.17;;;12.80;99.90;;;;;;5065876;28;20354;-71
2024/01/24 02:56:28;;;;;;;1.42;1.20;;;12.70;99.90;;;;;;5064975;28;20085;-71
2024/01/24 02:58:53;;;;;;;2.00;1.17;;;12.80;99.90;;;;;;5065784;28;20039;-71
2024/01/24 03:01:19;;;;;;;1.10;1.00;;;12.80;99.90;;;;;;5065224;28;20032;-71
2024/01/24 03:03:45;;;;;;;1.98;1.20;;;12.80;99.90;;;;;;5065826;28;20024;-70
2024/01/24 03:06:10;;;;;;;3.22;1.25;;;12.80;99.90;;;;;;5065072;28;20029;-71
2024/01/24 03:08:56;;;;;;;3.47;1.27;;;12.80;99.90;;;;;;5065705;28;20493;-71
2024/01/24 03:11:23;;;;;;;2.83;1.30;;;12.80;99.90;;;;;;5065073;28;20013;-71
2024/01/24 03:13:48;;;;;;;1.63;1.00;;;12.80;99.90;;;;;;5065986;28;20032;-71
2024/01/24 03:16:14;;;;;;;4.53;1.48;;;12.80;99.90;;;;;;5065233;28;20028;-71
2024/01/24 03:18:40;;;;;;;4.53;1.48;;;12.80;99.90;;;;;;5065733;28;20013;-72
2024/01/24 03:21:07;;;;;;;4.78;1.52;;;12.80;99.90;;;;;;5065110;28;20517;-71
2024/01/24 03:23:33;;;;;;;4.07;1.45;;;12.70;99.90;;;;;;5065534;28;20027;-71
2024/01/24 03:25:59;;;;;;;3.38;1.40;;;12.70;99.90;;;;;;5065281;28;20033;-71
2024/01/24 03:28:24;;;;;;;2.80;1.38;;;12.70;99.90;;;;;;5065606;28;20016;-70
2024/01/24 03:30:51;;;;;;;3.97;1.42;;;12.70;99.90;;;;;;5065653;28;20505;-72
2024/01/24 03:33:17;;;;;;;5.18;1.48;;;12.70;99.90;;;;;;5066469;28;20032;-73
2024/01/24 03:35:42;;;;;;;5.47;1.70;;;12.60;99.90;;;;;;5065940;28;20078;-72
2024/01/24 03:38:08;;;;;;;6.70;1.67;;;12.60;99.90;;;;;;5066334;28;20486;-70
2024/01/24 03:40:34;;;;;;;3.97;1.67;;;12.60;99.90;;;;;;5064092;28;20478;-71
2024/01/24 03:43:00;;;;;;;5.90;1.77;;;12.60;99.90;;;;;;5067432;28;20082;-71
2024/01/24 03:45:25;;;;;;;6.55;1.73;;;12.60;99.90;;;;;;5065035;28;20032;-71
2024/01/24 03:47:51;;;;;;;7.82;1.42;;;12.50;99.90;;;;;;5065466;28;20363;-71
2024/01/24 03:50:17;;;;;;;8.70;2.17;;;12.60;99.90;;;;;;5064939;28;20424;-70
2024/01/24 03:52:43;;;;;;;8.68;1.42;;;12.50;99.90;;;;;;5064853;28;20020;-71
2024/01/24 03:55:08;;;;;;;7.85;1.40;;;12.50;99.90;;;;;;5064784;28;20021;-70
2024/01/24 03:57:34;;;;;;;8.45;1.73;;;12.50;99.90;;;;;;5065134;28;20513;-71
2024/01/24 04:00:00;;;;;;;7.57;1.88;;;12.40;99.90;;;;;;5065469;28;20035;-71
2024/01/24 04:02:25;;;;;;;8.80;1.60;;;12.40;99.90;;;;;;5064813;28;20546;-71
2024/01/24 04:04:51;;;;;;;10.57;1.75;;;12.50;99.90;;;;;;5064870;28;20032;-71
2024/01/24 04:07:17;;;;;;;12.43;2.17;;;12.40;99.90;;;;;;5065032;28;20369;-71
2024/01/24 04:09:42;;;;;;;9.95;1.95;;;12.40;99.90;;;;;;5064586;28;20012;-71
2024/01/24 04:12:08;;;;;;;12.23;2.75;;;12.40;99.90;;;;;;5068955;28;20020;-71
2024/01/24 04:14:34;;;;;;;9.45;2.38;;;12.40;99.90;;;;;;5069182;28;20029;-71
2024/01/24 04:16:59;;;;;;;11.07;2.60;;;12.40;99.90;;;;;;5069058;28;20020;-71
2024/01/24 04:19:25;;;;;;;10.35;2.05;;;12.40;99.90;;;;;;5069528;28;20036;-71
2024/01/24 04:21:51;;;;;;;14.10;3.00;;;12.40;99.90;;;;;;5069060;28;20028;-70
2024/01/24 04:24:16;;;;;;;13.75;2.83;;;12.40;99.90;;;;;;5068971;28;20107;-70
2024/01/24 04:26:42;;;;;;;16.98;3.63;;;12.40;99.90;;;;;;5067959;28;20072;-72
2024/01/24 04:29:08;;;;;;;17.10;3.60;;;12.30;99.90;;;;;;5069329;28;20029;-71
2024/01/24 04:31:33;;;;;;;18.15;4.03;;;12.30;99.90;;;;;;5068094;28;20078;-71
2024/01/24 04:33:59;;;;;;;18.33;3.58;;;12.30;99.90;;;;;;5069093;28;20016;-71
2024/01/24 04:36:25;;;;;;;16.35;3.70;;;12.30;99.90;;;;;;5067557;28;20032;-70
2024/01/24 04:38:51;;;;;;;17.83;3.72;;;12.20;99.90;;;;;;5050470;28;20017;-71
2024/01/24 04:41:16;;;;;;;18.95;3.63;;;12.30;99.90;;;;;;5049937;28;20088;-72
2024/01/24 04:43:42;;;;;;;22.42;3.67;;;12.30;99.90;;;;;;5067982;28;20020;-71
2024/01/24 04:46:14;;;;;;;23.35;4.10;;;12.20;99.90;;;;;;5068054;28;20037;-71
2024/01/24 04:48:42;;;;;;;30.23;4.15;;;12.20;99.90;;;;;;5068014;28;20021;-71
2024/01/24 04:51:07;;;;;;;22.85;4.25;;;12.20;99.90;;;;;;5067602;28;20475;-71
2024/01/24 04:53:33;;;;;;;25.58;4.15;;;12.10;99.90;;;;;;5067976;28;20040;-71
2024/01/24 04:55:59;;;;;;;20.67;4.05;;;12.10;99.90;;;;;;5067828;28;20516;-71
2024/01/24 04:58:25;;;;;;;18.33;4.55;;;12.20;99.90;;;;;;5068267;28;20400;-70
2024/01/24 05:00:51;;;;;;;19.13;4.10;;;12.20;99.90;;;;;;5067595;28;20020;-71
2024/01/24 05:03:18;;;;;;;17.40;4.43;;;12.10;99.90;;;;;;5068100;28;20096;-71
2024/01/24 05:05:43;;;;;;;19.90;4.78;;;12.10;99.90;;;;;;5067133;28;20508;-72
2024/01/24 05:08:09;;;;;;;24.73;4.63;;;12.20;99.90;;;;;;5067698;28;20020;-72
2024/01/24 05:10:35;;;;;;;25.17;4.47;;;12.10;99.90;;;;;;5067670;28;20078;-71
2024/01/24 05:13:00;;;;;;;27.92;5.80;;;12.10;99.90;;;;;;5067789;28;20020;-71
2024/01/24 05:15:27;;;;;;;26.52;4.55;;;12.10;99.90;;;;;;5067134;28;20478;-72
2024/01/24 05:17:52;;;;;;;28.20;5.72;;;12.10;99.90;;;;;;5067929;28;20032;-71
2024/01/24 05:20:18;;;;;;;24.17;5.43;;;12.10;99.90;;;;;;5067327;28;20046;-71
2024/01/24 05:22:44;;;;;;;22.35;5.15;;;12.10;99.90;;;;;;5067304;28;20028;-71
2024/01/24 05:25:09;;;;;;;22.92;4.57;;;12.10;99.90;;;;;;5067067;28;20504;-71
2024/01/24 05:27:35;;;;;;;27.30;5.13;;;12.10;99.90;;;;;;5067225;28;20032;-71
2024/01/24 05:30:03;;;;;;;27.88;5.35;;;12.10;99.90;;;;;;5067672;28;20424;-71
2024/01/24 05:32:29;;;;;;;28.63;5.75;;;12.10;99.90;;;;;;5067721;28;20028;-71
2024/01/24 05:34:54;;;;;;;32.22;5.95;;;12.10;99.90;;;;;;5067868;28;20469;-71
2024/01/24 05:37:20;;;;;;;22.83;5.55;;;12.00;99.90;;;;;;5066743;28;20024;-72
2024/01/24 05:39:47;;;;;;;25.75;5.32;;;12.00;99.90;;;;;;5067065;28;20032;-71
2024/01/24 05:42:12;;;;;;;24.65;5.30;;;12.00;99.90;;;;;;5066835;28;20024;-71
2024/01/24 05:44:38;;;;;;;27.85;6.10;;;12.00;99.90;;;;;;5067479;28;20025;-71
2024/01/24 05:47:04;;;;;;;30.92;6.10;;;12.00;99.90;;;;;;5066726;28;20108;-71
2024/01/24 05:49:29;;;;;;;34.17;5.75;;;12.00;99.90;;;;;;5066922;28;20394;-71
2024/01/24 05:51:55;;;;;;;25.92;6.50;;;12.00;99.90;;;;;;5066695;28;20013;-71
2024/01/24 05:54:21;;;;;;;35.47;6.57;;;12.00;99.90;;;;;;5067459;28;20021;-71
2024/01/24 05:56:47;;;;;;;31.98;7.13;;;12.00;99.90;;;;;;5066457;28;20024;-71
2024/01/24 05:59:13;;;;;;;25.60;5.55;;;12.00;99.90;;;;;;5067396;28;20029;-71
2024/01/24 06:01:38;;;;;;;25.77;6.38;;;12.00;99.90;;;;;;5066079;28;20394;-71
2024/01/24 06:04:04;;;;;;;29.33;5.75;;;12.00;99.90;;;;;;5067267;28;20032;-71
2024/01/24 06:06:30;;;;;;;29.48;6.20;;;12.00;99.90;;;;;;5048425;28;20024;-70
2024/01/24 06:08:56;;;;;;;32.13;6.25;;;11.90;99.90;;;;;;5067097;28;20127;-71
2024/01/24 06:11:22;;;;;;;28.75;5.57;;;11.90;99.90;;;;;;5066271;28;20460;-71
2024/01/24 06:13:48;;;;;;;33.42;7.35;;;11.90;99.90;;;;;;5049030;28;20036;-71
2024/01/24 06:16:13;;;;;;;34.70;6.90;;;12.00;99.90;;;;;;5065997;28;20016;-71
2024/01/24 06:18:39;;;;;;;32.55;6.68;;;11.90;99.90;;;;;;5066964;28;20013;-72
2024/01/24 06:21:05;;;;;;;29.95;5.25;;;11.90;99.90;;;;;;5065884;28;20366;-72
2024/01/24 06:23:30;;;;;;;31.05;6.47;;;11.90;99.90;;;;;;5066382;28;20021;-71
2024/01/24 06:25:56;;;;;;;33.65;6.97;;;11.90;99.90;;;;;;5066193;28;20016;-72
2024/01/24 06:28:22;;;;;;;30.95;6.05;;;11.80;99.90;;;;;;5066554;28;20040;-71
2024/01/24 06:30:47;;;;;;;34.63;6.72;;;11.80;99.90;;;;;;5065867;28;20386;-71
2024/01/24 06:33:13;;;;;;;29.55;6.03;;;11.80;99.90;;;;;;5065495;28;20051;-71
2024/01/24 06:35:38;;;;;;;30.13;6.60;;;11.70;99.90;;;;;;5065548;28;20020;-71
2024/01/24 06:38:04;;;;;;;37.83;6.93;;;11.70;99.90;;;;;;5066265;28;20461;-72
2024/01/24 06:40:30;;;;;;;26.42;5.85;;;11.70;99.90;;;;;;5065155;28;20040;-71
2024/01/24 06:42:55;;;;;;;38.47;7.78;;;11.70;99.90;;;;;;5066252;28;20039;-71
2024/01/24 06:45:21;;;;;;;39.00;7.57;;;11.70;99.90;;;;;;5065952;28;20553;-71
2024/01/24 06:47:47;;;;;;;37.63;8.68;;;11.60;99.90;;;;;;5048009;28;20032;-71
2024/01/24 06:50:13;;;;;;;31.73;6.68;;;11.60;99.90;;;;;;5066136;28;20031;-71
2024/01/24 06:52:40;;;;;;;34.42;7.55;;;11.60;99.90;;;;;;5065580;28;20020;-70
2024/01/24 06:55:06;;;;;;;40.92;7.07;;;11.60;99.90;;;;;;5066709;28;20032;-71
2024/01/24 06:57:32;;;;;;;36.95;7.32;;;11.60;99.90;;;;;;5065396;28;20024;-72
2024/01/24 06:59:57;;;;;;;32.83;7.25;;;11.50;99.90;;;;;;5066145;28;20028;-72
2024/01/24 07:02:23;;;;;;;40.15;8.05;;;11.50;99.90;;;;;;5065643;28;20021;-71
2024/01/24 07:04:50;;;;;;;36.47;7.32;;;11.40;99.90;;;;;;5066050;28;21116;-71
2024/01/24 07:07:16;;;;;;;41.85;9.10;;;11.40;99.90;;;;;;5065194;28;20059;-71
2024/01/24 07:09:41;;;;;;;45.95;8.07;;;11.40;99.90;;;;;;5065643;28;20478;-71
2024/01/24 07:12:07;;;;;;;41.53;8.70;;;11.30;99.90;;;;;;5065132;28;20047;-71
2024/01/24 07:14:33;;;;;;;44.65;8.38;;;11.30;99.90;;;;;;5065917;28;20055;-73
2024/01/24 07:17:00;;;;;;;39.65;7.43;;;11.30;99.90;;;;;;5065210;28;20024;-72
2024/01/24 07:19:25;;;;;;;43.88;8.30;;;11.20;99.90;;;;;;5065820;28;20048;-72
2024/01/24 07:21:51;;;;;;;48.75;8.82;;;11.20;99.90;;;;;;5064650;28;20043;-73
2024/01/24 07:24:17;;;;;;;42.20;8.57;;;11.10;99.90;;;;;;5058275;28;20381;-72
2024/01/24 07:26:43;;;;;;;39.28;7.80;;;11.10;99.90;;;;;;5049449;28;20477;-72
2024/01/24 07:29:10;;;;;;;37.45;8.18;;;11.10;99.90;;;;;;5057109;28;20036;-72
2024/01/24 07:31:37;;;;;;;48.35;9.27;;;11.00;99.90;;;;;;5059299;28;20405;-72
2024/01/24 07:34:03;;;;;;;49.17;7.30;;;11.00;99.90;;;;;;5065405;28;20028;-72
2024/01/24 07:36:28;;;;;;;41.67;8.85;;;11.00;99.90;;;;;;5059799;28;20040;-72
2024/01/24 07:38:54;;;;;;;46.00;8.85;;;10.90;99.90;;;;;;5063353;28;20023;-72
2024/01/24 07:41:20;;;;;;;39.13;7.72;;;10.90;99.90;;;;;;5058971;28;20090;-72
2024/01/24 07:43:46;;;;;;;40.50;8.77;;;10.90;99.90;;;;;;5064956;28;20048;-72
2024/01/24 07:46:12;;;;;;;41.33;7.57;;;10.90;99.90;;;;;;5064340;28;20025;-72
2024/01/24 07:48:38;;;;;;;50.08;9.48;;;10.80;99.90;;;;;;5065069;28;20021;-72
2024/01/24 07:51:06;;;;;;;45.70;9.50;;;10.80;99.90;;;;;;5064130;28;20052;-72
2024/01/24 07:53:32;;;;;;;42.67;7.55;;;10.80;99.90;;;;;;5056481;28;20029;-72
2024/01/24 07:55:59;;;;;;;38.63;8.52;;;10.80;99.90;;;;;;5059850;28;20372;-72
2024/01/24 07:58:25;;;;;;;38.67;8.32;;;10.80;99.90;;;;;;5054838;28;20029;-73
2024/01/24 08:00:51;;;;;;;39.38;7.53;;;10.80;99.90;;;;;;5048949;28;20028;-73
2024/01/24 08:03:17;;;;;;;44.00;8.43;;;10.80;99.90;;;;;;5063330;28;20086;-73
2024/01/24 08:05:43;;;;;;;36.20;8.30;;;10.70;99.90;;;;;;5039453;28;20482;-72
2024/01/24 08:08:08;;;;;;;44.38;9.18;;;10.70;99.90;;;;;;5064662;28;20029;-72
2024/01/24 08:10:34;;;;;;;36.53;8.45;;;10.70;99.90;;;;;;5059591;28;20375;-72
2024/01/24 08:13:00;;;;;;;39.92;8.40;;;10.70;99.90;;;;;;5061509;28;20016;-73
2024/01/24 08:15:26;;;;;;;37.53;6.90;;;10.70;99.90;;;;;;5064470;28;20505;-73
2024/01/24 08:17:51;;;;;;;38.17;8.73;;;10.70;99.90;;;;;;5064402;28;20029;-73
2024/01/24 08:20:19;;;;;;;38.88;6.60;;;10.70;99.90;;;;;;5061328;28;20020;-72
2024/01/24 08:22:45;;;;;;;40.13;8.18;;;10.70;99.90;;;;;;5056300;28;20037;-72
2024/01/24 08:25:11;;;;;;;46.95;9.13;;;10.70;99.90;;;;;;5065008;28;20039;-72
2024/01/24 08:27:36;;;;;;;45.33;9.02;;;10.70;99.90;;;;;;5064470;28;20028;-73
2024/01/24 08:30:03;;;;;;;38.03;7.90;;;10.70;99.90;;;;;;5063502;28;20135;-72
2024/01/24 08:32:28;;;;;;;41.85;8.55;;;10.70;99.90;;;;;;5060065;28;20067;-72
2024/01/24 08:34:54;;;;;;;40.35;7.75;;;10.70;99.90;;;;;;5051274;28;20044;-72
2024/01/24 08:37:20;;;;;;;33.95;7.15;;;10.70;99.90;;;;;;5062445;28;20056;-73
2024/01/24 08:39:46;;;;;;;34.05;7.95;;;10.70;99.90;;;;;;5056186;28;20401;-72
2024/01/24 08:42:12;;;;;;;32.33;7.43;;;10.70;99.90;;;;;;5060401;28;20506;-72
2024/01/24 08:44:38;;;;;;;41.63;7.78;;;10.70;99.90;;;;;;5061837;28;20070;-73
2024/01/24 08:47:03;;;;;;;45.67;9.65;;;10.70;99.90;;;;;;5056006;28;20119;-77
2024/01/24 08:49:29;;;;;;;34.15;7.13;;;10.70;99.90;;;;;;5048950;28;20021;-72
2024/01/24 08:51:56;;;;;;;35.17;8.00;;;10.70;99.90;;;;;;5063884;28;20033;-72
2024/01/24 08:54:22;;;;;;;39.42;7.43;;;10.80;99.90;;;;;;5053113;28;20016;-73
2024/01/24 08:56:48;;;;;;;45.72;8.98;;;10.80;99.90;;;;;;5065035;28;20074;-73
2024/01/24 08:59:13;;;;;;;37.80;6.88;;;10.80;99.90;;;;;;5068461;28;20029;-72
2024/01/24 09:01:39;;;;;;;30.27;6.22;;;10.80;99.90;;;;;;5067431;28;20016;-72
2024/01/24 09:04:05;;;;;;;31.35;7.88;;;10.80;99.90;;;;;;5068358;28;20044;-72
2024/01/24 09:06:30;;;;;;;39.20;6.93;;;10.80;99.90;;;;;;5067026;28;20021;-72
2024/01/24 09:08:56;;;;;;;37.50;7.47;;;10.80;99.90;;;;;;5066812;28;20059;-72
2024/01/24 09:11:22;;;;;;;35.95;8.20;;;10.80;99.90;;;;;;5066294;28;20028;-72
2024/01/24 09:13:48;;;;;;;32.47;7.05;;;10.90;99.90;;;;;;5053070;28;20056;-72
2024/01/24 09:16:15;;;;;;;42.78;9.25;;;10.80;99.90;;;;;;5062595;28;20020;-72
2024/01/24 09:18:42;;;;;;;39.17;7.78;;;10.80;99.90;;;;;;5064681;28;20017;-70
2024/01/24 09:21:07;;;;;;;33.35;6.93;;;10.90;99.90;;;;;;5060713;28;20146;-72
2024/01/24 09:23:33;;;;;;;41.65;8.32;;;10.90;99.90;;;;;;5059003;28;20431;-72
2024/01/24 09:25:59;;;;;;;43.42;7.85;;;10.90;99.90;;;;;;5065614;28;20016;-72
2024/01/24 09:28:24;;;;;;;36.35;7.88;;;11.00;99.90;;;;;;5060228;28;20476;-71
2024/01/24 09:30:50;;;;;;;40.03;7.35;;;11.00;99.90;;;;;;5058957;28;20123;-72
2024/01/24 09:33:19;;;;;;;36.90;8.13;;;11.00;99.90;;;;;;5067332;28;20104;-73
2024/01/24 09:35:46;;;;;;;42.90;8.68;;;11.00;99.90;;;;;;5066792;28;21091;-72
2024/01/24 09:38:13;;;;;;;46.70;8.48;;;11.00;99.90;;;;;;5054087;28;20029;-73
2024/01/24 09:40:38;;;;;;;44.92;8.45;;;11.10;99.90;;;;;;5059955;28;20056;-72
2024/01/24 09:43:07;;;;;;;43.30;8.88;;;11.10;99.90;;;;;;5060935;28;20056;-72
2024/01/24 09:45:42;;;;;;;41.95;6.80;;;11.10;99.90;;;;;;5052868;28;20032;-72
2024/01/24 09:48:10;;;;;;;44.72;7.93;;;11.10;99.90;;;;;;5057206;28;20036;-72
2024/01/24 09:50:36;;;;;;;43.33;8.65;;;11.10;99.90;;;;;;5065234;28;20020;-72
2024/01/24 09:53:08;;;;;;;32.65;7.68;;;11.20;99.90;;;;;;5053499;28;20016;-72
2024/01/24 09:55:34;;;;;;;31.05;7.10;;;11.20;99.90;;;;;;5063272;28;20531;-72
2024/01/24 09:58:00;;;;;;;40.78;8.07;;;11.20;99.90;;;;;;5063026;28;20024;-72
2024/01/24 10:00:26;;;;;;;33.40;7.40;;;11.30;99.90;;;;;;5047753;28;20482;-72
2024/01/24 10:02:53;;;;;;;40.58;7.22;;;11.40;99.90;;;;;;5060870;28;20013;-72
2024/01/24 10:05:20;;;;;;;37.63;7.68;;;11.40;99.90;;;;;;5048492;28;20028;-73
2024/01/24 10:07:46;;;;;;;33.33;7.80;;;11.40;99.90;;;;;;5057989;28;20032;-72
2024/01/24 10:10:12;;;;;;;32.97;7.22;;;11.50;99.90;;;;;;5054906;28;20017;-72
2024/01/24 10:12:39;;;;;;;35.72;8.50;;;11.50;99.90;;;;;;5059203;28;20565;-73
2024/01/24 10:15:06;;;;;;;40.53;8.52;;;11.50;99.90;;;;;;5062477;28;20119;-72
2024/01/24 10:17:31;;;;;;;34.90;8.50;;;11.60;99.90;;;;;;5064896;28;20013;-72
2024/01/24 10:19:58;;;;;;;38.88;8.15;;;11.60;99.90;;;;;;5058890;28;20388;-72
2024/01/24 10:22:24;;;;;;;32.65;6.95;;;11.60;99.90;;;;;;5059142;28;20075;-71
2024/01/24 10:24:53;;;;;;;34.60;8.35;;;11.60;99.90;;;;;;5059070;28;20111;-72
2024/01/24 10:27:19;;;;;;;34.00;8.18;;;11.70;99.90;;;;;;5061434;28;20397;-72
2024/01/24 10:29:45;;;;;;;30.50;6.38;;;11.70;99.90;;;;;;5065095;28;20115;-72
2024/01/24 10:32:10;;;;;;;34.53;7.72;;;11.70;99.90;;;;;;5065788;28;20214;-73
2024/01/24 10:34:37;;;;;;;30.77;7.55;;;11.70;99.90;;;;;;5066167;28;20020;-72
2024/01/24 10:37:07;;;;;;;32.10;6.13;;;11.70;99.90;;;;;;5065855;28;20012;-72
2024/01/24 10:39:36;;;;;;;32.95;7.35;;;11.70;99.90;;;;;;5060318;28;20093;-72
2024/01/24 10:42:06;;;;;;;37.75;7.63;;;11.80;99.90;;;;;;5063397;28;20488;-72
2024/01/24 10:44:43;;;;;;;30.13;7.53;;;11.80;99.90;;;;;;5062650;28;20020;-72
2024/01/24 10:47:09;;;;;;;31.77;6.35;;;11.80;99.90;;;;;;5061552;28;20040;-72
2024/01/24 10:49:36;;;;;;;38.33;7.75;;;11.70;99.90;;;;;;5054864;28;20021;-72
2024/01/24 10:52:02;;;;;;;31.55;6.78;;;11.70;99.90;;;;;;5057556;28;20100;-72
2024/01/24 10:54:29;;;;;;;41.53;8.13;;;11.70;99.90;;;;;;5060495;28;20023;-72
2024/01/24 10:56:56;;;;;;;32.30;6.60;;;11.70;99.90;;;;;;5065262;28;20082;-72
2024/01/24 10:59:23;;;;;;;31.52;7.30;;;11.70;99.90;;;;;;5061473;28;20058;-72
2024/01/24 11:01:49;;;;;;;38.78;6.70;;;11.70;99.90;;;;;;5065176;28;20033;-72
2024/01/24 11:04:19;;;;;;;38.63;8.50;;;11.80;99.90;;;;;;5065793;28;20089;-72
2024/01/24 11:07:07;;;;;;;33.22;6.95;;;11.80;99.90;;;;;;5061735;28;20028;-72
2024/01/24 11:10:01;;;;;;;38.28;8.43;;;11.80;99.90;;;;;;5051369;28;20456;-72
2024/01/24 11:12:26;;;;;;;33.05;7.80;;;11.80;99.90;;;;;;5065185;28;20032;-72
2024/01/24 11:14:52;;;;;;;29.95;6.32;;;11.80;99.90;;;;;;5065940;28;20025;-72
2024/01/24 11:17:19;;;;;;;31.42;6.30;;;11.80;99.90;;;;;;5065197;28;20047;-72
2024/01/24 11:19:46;;;;;;;35.10;6.70;;;11.80;99.90;;;;;;5061082;28;20544;-73
2024/01/24 11:22:22;;;;;;;35.90;7.15;;;11.90;99.90;;;;;;5060709;28;20031;-73
2024/01/24 11:24:48;;;;;;;34.72;7.38;;;11.90;99.90;;;;;;5061130;28;20022;-72
2024/01/24 11:27:32;;;;;;;29.92;6.25;;;11.90;99.90;;;;;;5057108;28;20032;-73
2024/01/24 11:30:03;;;;;;;39.30;6.47;;;12.00;99.90;;;;;;5055288;28;20028;-72
2024/01/24 11:32:43;;;;;;;31.63;6.63;;;12.00;99.90;;;;;;5062805;28;20024;-72
2024/01/24 11:35:36;;;;;;;32.78;7.63;;;12.00;99.90;;;;;;5065302;28;20721;-72
2024/01/24 11:38:19;;;;;;;31.95;6.95;;;11.90;99.90;;;;;;5058101;28;20127;-72
2024/01/24 11:40:45;;;;;;;39.17;6.70;;;12.00;99.90;;;;;;5056661;28;20055;-72
2024/01/24 11:43:25;;;;;;;35.03;6.70;;;11.90;99.90;;;;;;5063315;28;20028;-72
2024/01/24 11:45:55;;;;;;;28.95;6.47;;;11.90;99.90;;;;;;5050896;28;20433;-72
2024/01/24 11:48:21;;;;;;;34.28;6.85;;;12.00;99.90;;;;;;5056344;28;20071;-72
2024/01/24 11:50:56;;;;;;;32.70;7.10;;;11.90;99.90;;;;;;5062661;28;20021;-72
2024/01/24 11:53:22;;;;;;;30.23;6.63;;;11.90;99.90;;;;;;5060450;28;20093;-72
2024/01/24 11:55:55;;;;;;;34.42;6.75;;;11.90;99.90;;;;;;5049530;28;20482;-72
2024/01/24 11:58:28;;;;;;;42.92;7.80;;;11.90;99.90;;;;;;5050054;28;20032;-71
2024/01/24 12:00:54;;;;;;;33.67;6.38;;;11.90;99.90;;;;;;5060408;28;20369;-72
2024/01/24 12:03:20;;;;;;;30.30;6.75;;;11.90;99.90;;;;;;5047404;28;20028;-72
2024/01/24 12:05:47;;;;;;;25.17;5.97;;;11.90;99.90;;;;;;5045848;28;20075;-71
2024/01/24 12:08:13;;;;;;;32.03;6.18;;;12.00;99.90;;;;;;5062997;28;20474;-72
2024/01/24 12:10:41;;;;;;;31.27;6.53;;;11.90;99.90;;;;;;5064801;28;20521;-73
2024/01/24 12:13:07;;;;;;;35.25;7.00;;;12.00;99.90;;;;;;5058589;28;20507;-72
2024/01/24 12:15:33;;;;;;;30.10;6.68;;;12.00;99.90;;;;;;5065134;28;20017;-72
2024/01/24 12:18:10;;;;;;;30.33;6.47;;;12.00;99.90;;;;;;5064513;28;20486;-72
2024/01/24 12:20:37;;;;;;;31.77;6.90;;;12.00;99.90;;;;;;5064911;28;20068;-72
2024/01/24 12:23:04;;;;;;;36.15;6.93;;;12.00;99.90;;;;;;5064234;28;20078;-72
2024/01/24 12:25:30;;;;;;;22.08;5.07;;;11.90;99.90;;;;;;5051071;28;20036;-72
2024/01/24 12:27:57;;;;;;;23.33;5.65;;;12.00;99.90;;;;;;5044306;28;20048;-72
2024/01/24 12:30:25;;;;;;;31.73;6.55;;;12.00;99.90;;;;;;5063455;28;20080;-72
2024/01/24 12:32:55;;;;;;;35.33;7.72;;;11.90;99.90;;;;;;5063653;28;20097;-73
2024/01/24 12:35:22;;;;;;;31.75;5.60;;;11.90;99.90;;;;;;5067145;28;20016;-72
2024/01/24 12:37:48;;;;;;;24.73;6.53;;;11.90;99.90;;;;;;5060032;28;20105;-72